createdAt,value
2023-03-15T00:01:16.337Z,4.55
2023-03-15T00:03:43.472Z,3.95
2023-03-15T00:06:10.594Z,4.63
2023-03-15T00:08:37.584Z,3.65
2023-03-15T00:11:04.492Z,3.60
2023-03-15T00:13:31.661Z,3.40
2023-03-15T00:16:00.758Z,3.28
2023-03-15T00:18:27.627Z,2.88
2023-03-15T00:20:54.365Z,3.92
2023-03-15T00:23:20.910Z,3.67
2023-03-15T00:25:49.166Z,2.95
2023-03-15T00:28:15.882Z,5.13
2023-03-15T00:30:42.854Z,5.70
2023-03-15T00:33:13.639Z,5.40
2023-03-15T00:35:42.685Z,5.60
2023-03-15T00:38:09.651Z,5.57
2023-03-15T00:40:37.444Z,5.88
2023-03-15T00:43:04.148Z,5.13
2023-03-15T00:45:30.566Z,4.65
2023-03-15T00:47:57.107Z,4.60
2023-03-15T00:50:23.704Z,4.95
2023-03-15T00:52:50.516Z,4.65
2023-03-15T00:55:19.041Z,5.03
2023-03-15T00:57:47.801Z,4.70
2023-03-15T01:00:24.372Z,4.93
2023-03-15T01:02:52.840Z,5.35
2023-03-15T01:05:20.130Z,5.65
2023-03-15T01:07:47.238Z,6.10
2023-03-15T01:10:15.337Z,5.90
2023-03-15T01:12:41.912Z,6.25
2023-03-15T01:15:13.420Z,7.00
2023-03-15T01:17:40.972Z,6.15
2023-03-15T01:20:08.745Z,6.45
2023-03-15T01:22:35.505Z,6.53
2023-03-15T01:25:01.975Z,6.38
2023-03-15T01:27:28.355Z,5.43
2023-03-15T01:29:55.025Z,6.10
2023-03-15T01:32:21.486Z,5.63
2023-03-15T01:34:48.061Z,5.78
2023-03-15T01:37:14.805Z,5.72
2023-03-15T01:39:44.292Z,5.00
2023-03-15T01:42:11.476Z,5.22
2023-03-15T01:44:47.854Z,4.50
2023-03-15T01:47:14.255Z,5.18
2023-03-15T01:49:40.954Z,4.30
2023-03-15T01:52:12.983Z,4.05
2023-03-15T01:55:10.024Z,4.35
2023-03-15T01:57:46.703Z,3.40
2023-03-15T02:00:16.519Z,3.10
2023-03-15T02:02:59.228Z,3.40
2023-03-15T02:05:33.977Z,3.47
2023-03-15T02:08:05.916Z,3.88
2023-03-15T02:10:38.943Z,4.15
2023-03-15T02:13:06.850Z,4.18
2023-03-15T02:15:33.339Z,4.55
2023-03-15T02:18:03.231Z,4.93
2023-03-15T02:20:54.052Z,5.65
2023-03-15T02:23:22.542Z,5.32
2023-03-15T02:26:22.596Z,7.47
2023-03-15T02:28:50.663Z,7.20
2023-03-15T02:31:19.734Z,6.50
2023-03-15T02:33:49.656Z,5.70
2023-03-15T02:36:26.537Z,7.57
2023-03-15T02:38:54.154Z,7.63
2023-03-15T02:41:33.360Z,7.30
2023-03-15T02:44:05.279Z,6.47
2023-03-15T02:46:32.165Z,7.60
2023-03-15T02:48:59.889Z,7.88
2023-03-15T02:51:29.663Z,7.13
2023-03-15T02:53:56.927Z,6.57
2023-03-15T02:56:24.433Z,5.45
2023-03-15T02:58:51.073Z,5.35
2023-03-15T03:01:18.732Z,4.53
2023-03-15T03:03:46.390Z,3.90
2023-03-15T03:06:15.077Z,3.47
2023-03-15T03:08:41.938Z,2.70
2023-03-15T03:11:09.427Z,2.30
2023-03-15T03:13:37.068Z,2.17
2023-03-15T03:16:05.398Z,2.03
2023-03-15T03:18:35.625Z,2.78
2023-03-15T03:21:05.651Z,2.88
2023-03-15T03:23:34.120Z,2.90
2023-03-15T03:26:01.254Z,3.15
2023-03-15T03:28:30.055Z,3.60
2023-03-15T03:30:58.492Z,3.05
2023-03-15T03:33:26.556Z,3.10
2023-03-15T03:35:54.057Z,2.78
2023-03-15T03:38:20.693Z,3.08
2023-03-15T03:43:20.305Z,3.45
2023-03-15T03:45:46.813Z,3.40
2023-03-15T03:48:14.594Z,3.40
2023-03-15T03:50:40.966Z,3.25
2023-03-15T03:53:07.522Z,3.90
2023-03-15T03:55:34.968Z,3.83
2023-03-15T03:58:01.420Z,4.13
2023-03-15T04:00:45.436Z,4.38
2023-03-15T04:03:12.887Z,4.60
2023-03-15T04:05:44.856Z,4.70
2023-03-15T04:08:16.407Z,4.80
2023-03-15T04:10:43.192Z,5.00
2023-03-15T04:13:10.300Z,5.05
2023-03-15T04:15:37.009Z,5.45
2023-03-15T04:18:05.726Z,5.35
2023-03-15T04:20:37.406Z,5.80
2023-03-15T04:23:04.017Z,6.18
2023-03-15T04:25:57.835Z,5.75
2023-03-15T04:28:42.976Z,5.93
2023-03-15T04:31:28.913Z,6.43
2023-03-15T04:34:31.211Z,7.05
2023-03-15T04:37:11.417Z,6.85
2023-03-15T04:39:52.294Z,7.32
2023-03-15T04:42:39.952Z,8.07
2023-03-15T04:45:26.762Z,24.38
2023-03-15T04:48:11.977Z,18.88
2023-03-15T04:50:46.024Z,12.25
2023-03-15T04:53:31.341Z,10.55
2023-03-15T04:56:18.133Z,9.60
2023-03-15T04:59:03.977Z,10.18
2023-03-15T05:01:51.612Z,9.45
2023-03-15T05:04:28.189Z,11.13
2023-03-15T05:07:09.412Z,10.75
2023-03-15T05:09:54.737Z,11.07
2023-03-15T05:12:39.907Z,12.48
2023-03-15T05:15:22.485Z,13.60
2023-03-15T05:17:54.891Z,13.48
2023-03-15T05:20:47.808Z,15.52
2023-03-15T05:23:36.866Z,14.52
2023-03-15T05:29:08.606Z,15.45
2023-03-15T05:31:46.377Z,15.85
2023-03-15T05:34:36.820Z,15.98
2023-03-15T05:37:23.038Z,15.15
2023-03-15T05:40:10.187Z,16.67
2023-03-15T05:42:47.156Z,17.55
2023-03-15T05:45:22.793Z,16.05
2023-03-15T05:47:55.161Z,17.75
2023-03-15T05:50:57.040Z,18.05
2023-03-15T05:53:34.928Z,17.45
2023-03-15T05:56:14.866Z,17.70
2023-03-15T05:58:53.342Z,17.33
2023-03-15T06:01:38.247Z,18.40
2023-03-15T06:04:18.899Z,18.45
2023-03-15T06:06:45.774Z,19.45
2023-03-15T06:09:12.854Z,18.70
2023-03-15T06:11:39.550Z,18.95
2023-03-15T06:14:07.655Z,18.60
2023-03-15T06:16:44.524Z,19.23
2023-03-15T06:19:11.569Z,19.23
2023-03-15T06:21:38.082Z,19.70
2023-03-15T06:24:10.454Z,18.03
2023-03-15T06:26:37.541Z,18.35
2023-03-15T06:29:06.295Z,17.20
2023-03-15T06:31:33.154Z,17.08
2023-03-15T06:34:05.842Z,16.42
2023-03-15T06:36:33.791Z,17.60
2023-03-15T06:39:02.797Z,18.13
2023-03-15T06:41:29.275Z,17.48
2023-03-15T06:44:03.622Z,16.35
2023-03-15T06:46:30.211Z,15.95
2023-03-15T06:48:56.830Z,14.77
2023-03-15T06:51:23.604Z,15.93
2023-03-15T06:53:50.037Z,14.98
2023-03-15T06:56:16.636Z,15.88
2023-03-15T06:58:43.284Z,15.20
2023-03-15T07:01:13.387Z,15.20
2023-03-15T07:03:40.900Z,14.13
2023-03-15T07:06:07.459Z,14.88
2023-03-15T07:08:34.695Z,14.73
2023-03-15T07:11:03.118Z,14.10
2023-03-15T07:13:29.830Z,13.40
2023-03-15T07:15:56.738Z,14.50
2023-03-15T07:18:23.693Z,12.98
2023-03-15T07:21:01.119Z,13.15
2023-03-15T07:23:28.357Z,12.65
2023-03-15T07:25:55.991Z,14.15
2023-03-15T07:28:24.716Z,13.57
2023-03-15T07:31:05.559Z,14.43
2023-03-15T07:33:34.054Z,14.45
2023-03-15T07:36:01.343Z,13.50
2023-03-15T07:38:31.167Z,12.43
2023-03-15T07:40:58.078Z,13.35
2023-03-15T07:43:24.553Z,13.60
2023-03-15T07:45:59.455Z,13.85
2023-03-15T07:48:26.163Z,13.45
2023-03-15T07:50:52.592Z,12.80
2023-03-15T07:53:19.004Z,11.93
2023-03-15T07:55:47.193Z,11.38
2023-03-15T07:58:14.029Z,12.85
2023-03-15T08:00:41.033Z,11.55
2023-03-15T08:03:07.693Z,12.65
2023-03-15T08:05:35.327Z,13.30
2023-03-15T08:08:01.782Z,12.07
2023-03-15T08:10:28.337Z,12.25
2023-03-15T08:12:54.856Z,12.23
2023-03-15T08:15:21.466Z,10.77
2023-03-15T08:17:48.660Z,11.32
2023-03-15T08:20:17.591Z,11.18
2023-03-15T08:22:46.270Z,11.77
2023-03-15T08:25:15.217Z,11.10
2023-03-15T08:27:44.660Z,9.63
2023-03-15T08:30:13.710Z,10.95
2023-03-15T08:32:41.973Z,11.00
2023-03-15T08:35:09.129Z,10.95
2023-03-15T08:37:35.671Z,12.00
2023-03-15T08:40:07.613Z,11.93
2023-03-15T08:42:34.026Z,12.20
2023-03-15T08:45:01.930Z,11.90
2023-03-15T08:47:28.680Z,11.25
2023-03-15T08:49:55.055Z,11.05
2023-03-15T08:52:21.556Z,10.15
2023-03-15T08:54:48.571Z,11.00
2023-03-15T08:57:14.992Z,11.18
2023-03-15T08:59:41.391Z,10.00
2023-03-15T09:02:11.479Z,10.05
2023-03-15T09:04:37.995Z,9.52
2023-03-15T09:07:04.513Z,10.13
2023-03-15T09:09:30.879Z,10.38
2023-03-15T09:11:57.517Z,10.60
2023-03-15T09:14:23.942Z,9.73
2023-03-15T09:16:50.390Z,9.63
2023-03-15T09:19:16.803Z,9.98
2023-03-15T09:21:45.047Z,9.73
2023-03-15T09:24:11.462Z,9.18
2023-03-15T09:26:37.935Z,10.13
2023-03-15T09:29:04.570Z,9.73
2023-03-15T09:31:31.967Z,9.25
2023-03-15T09:33:58.778Z,8.73
2023-03-15T09:36:25.211Z,8.50
2023-03-15T09:38:51.611Z,8.77
2023-03-15T09:41:33.716Z,9.15
2023-03-15T09:44:30.847Z,9.73
2023-03-15T09:47:06.093Z,10.15
2023-03-15T09:49:41.686Z,8.80
2023-03-15T09:52:14.134Z,9.30
2023-03-15T09:54:43.590Z,9.73
2023-03-15T09:57:18.598Z,8.57
2023-03-15T09:59:49.020Z,8.15
2023-03-15T10:02:29.016Z,7.88
2023-03-15T10:05:06.241Z,7.00
2023-03-15T10:07:32.857Z,7.78
2023-03-15T10:09:59.297Z,7.93
2023-03-15T10:12:41.270Z,7.38
2023-03-15T10:15:16.691Z,7.93
2023-03-15T10:18:04.052Z,7.22
2023-03-15T10:20:44.466Z,7.32
2023-03-15T10:23:22.615Z,8.02
2023-03-15T10:25:51.676Z,6.65
2023-03-15T10:28:24.491Z,6.35
2023-03-15T10:30:51.998Z,7.35
2023-03-15T10:33:36.057Z,6.75
2023-03-15T10:36:13.454Z,4.97
2023-03-15T10:38:41.720Z,5.60
2023-03-15T10:41:11.550Z,5.10
2023-03-15T10:43:41.478Z,5.00
2023-03-15T10:46:22.761Z,4.88
2023-03-15T10:48:58.622Z,4.60
2023-03-15T10:51:37.414Z,5.60
2023-03-15T10:54:11.301Z,8.25
2023-03-15T10:56:45.269Z,5.25
2023-03-15T10:59:17.808Z,4.68
2023-03-15T11:01:48.055Z,5.03
2023-03-15T11:04:18.033Z,6.60
2023-03-15T11:06:49.666Z,3.95
2023-03-15T11:09:27.040Z,3.28
2023-03-15T11:12:02.543Z,2.55
2023-03-15T11:14:44.727Z,2.35
2023-03-15T11:17:24.339Z,2.80
2023-03-15T11:19:57.225Z,2.65
2023-03-15T11:22:23.898Z,3.35
2023-03-15T11:24:51.597Z,7.20
2023-03-15T11:27:22.622Z,2.80
2023-03-15T11:29:54.697Z,3.28
2023-03-15T11:32:24.101Z,2.60
2023-03-15T11:35:14.078Z,2.22
2023-03-15T11:37:47.592Z,2.78
2023-03-15T11:40:21.969Z,2.03
2023-03-15T11:42:54.788Z,2.95
2023-03-15T11:45:34.122Z,2.50
2023-03-15T11:48:29.794Z,1.83
2023-03-15T11:50:58.126Z,1.50
2023-03-15T11:53:34.947Z,1.60
2023-03-15T11:56:25.210Z,1.90
2023-03-15T11:59:15.780Z,2.15
2023-03-15T12:01:46.387Z,1.65
2023-03-15T12:04:25.505Z,1.58
2023-03-15T12:06:54.632Z,1.63
2023-03-15T12:09:33.134Z,1.80
2023-03-15T12:12:01.885Z,1.60
2023-03-15T12:14:29.826Z,1.65
2023-03-15T12:17:24.250Z,1.58
2023-03-15T12:20:09.408Z,1.38
2023-03-15T12:22:37.812Z,2.00
2023-03-15T12:25:56.919Z,1.50
2023-03-15T12:28:30.548Z,1.50
2023-03-15T12:33:28.041Z,1.60
2023-03-15T12:36:07.801Z,1.92
2023-03-15T12:38:41.719Z,2.83
2023-03-15T12:41:29.693Z,1.80
2023-03-15T12:44:27.119Z,3.10
2023-03-15T12:46:55.661Z,4.00
2023-03-15T12:49:24.740Z,2.67
2023-03-15T12:52:01.052Z,3.80
2023-03-15T12:54:46.593Z,1.83
2023-03-15T12:57:16.262Z,4.53
2023-03-15T12:59:58.000Z,1.75
2023-03-15T13:02:44.642Z,1.40
2023-03-15T13:05:19.262Z,1.10
2023-03-15T13:08:09.765Z,1.73
2023-03-15T13:10:39.872Z,2.70
2023-03-15T13:13:14.767Z,2.20
2023-03-15T13:15:54.931Z,1.70
2023-03-15T13:18:24.188Z,1.02
2023-03-15T13:21:13.736Z,1.10
2023-03-15T13:23:44.134Z,1.55
2023-03-15T13:26:33.204Z,0.98
2023-03-15T13:29:21.024Z,1.40
2023-03-15T13:32:00.941Z,1.17
2023-03-15T13:34:31.003Z,1.35
2023-03-15T13:36:58.841Z,1.55
2023-03-15T13:39:28.042Z,1.33
2023-03-15T13:42:23.731Z,1.45
2023-03-15T13:45:08.921Z,1.85
2023-03-15T13:47:35.312Z,1.90
2023-03-15T13:50:05.809Z,1.50
2023-03-15T13:52:32.582Z,1.02
2023-03-15T13:55:00.177Z,1.10
2023-03-15T13:57:26.877Z,0.85
2023-03-15T14:00:13.243Z,0.88
2023-03-15T14:02:42.660Z,1.00
2023-03-15T14:05:16.544Z,0.77
2023-03-15T14:07:48.437Z,1.13
2023-03-15T14:10:32.669Z,1.30
2023-03-15T14:13:26.779Z,0.98
2023-03-15T14:15:59.654Z,1.48
2023-03-15T14:18:32.304Z,1.17
2023-03-15T14:21:05.728Z,1.13
2023-03-15T14:23:36.243Z,1.10
2023-03-15T14:26:05.376Z,1.75
2023-03-15T14:28:33.149Z,1.73
2023-03-15T14:31:02.178Z,1.30
2023-03-15T14:33:39.739Z,1.50
2023-03-15T14:36:10.117Z,1.10
2023-03-15T14:38:40.012Z,1.88
2023-03-15T14:41:33.508Z,1.48
2023-03-15T14:44:02.809Z,1.15
2023-03-15T14:46:31.276Z,1.38
2023-03-15T14:48:58.149Z,1.30
2023-03-15T14:51:27.362Z,1.08
2023-03-15T14:53:56.490Z,1.52
2023-03-15T14:56:24.269Z,1.20
2023-03-15T14:58:53.880Z,1.00
2023-03-15T15:01:26.334Z,1.50
2023-03-15T15:04:02.820Z,1.45
2023-03-15T15:06:31.907Z,1.35
2023-03-15T15:09:00.055Z,1.20
2023-03-15T15:11:26.767Z,1.25
2023-03-15T15:13:54.193Z,1.08
2023-03-15T15:16:20.716Z,2.70
2023-03-15T15:18:47.240Z,0.98
2023-03-15T15:21:19.577Z,1.60
2023-03-15T15:23:57.890Z,2.15
2023-03-15T15:26:27.731Z,2.47
2023-03-15T15:28:54.473Z,1.75
2023-03-15T15:31:23.749Z,3.65
2023-03-15T15:33:54.705Z,2.55
2023-03-15T15:36:32.384Z,7.63
2023-03-15T15:39:05.777Z,2.90
2023-03-15T15:41:32.981Z,1.63
2023-03-15T15:43:59.991Z,1.48
2023-03-15T15:46:26.571Z,1.42
2023-03-15T15:48:53.433Z,1.10
2023-03-15T15:51:45.863Z,1.05
2023-03-15T15:54:18.812Z,1.40
2023-03-15T15:56:49.030Z,7.10
2023-03-15T15:59:17.478Z,3.65
2023-03-15T16:01:58.864Z,4.72
2023-03-15T16:04:26.732Z,3.25
2023-03-15T16:06:58.996Z,3.72
2023-03-15T16:09:29.964Z,1.73
2023-03-15T16:11:56.459Z,4.80
2023-03-15T16:14:22.861Z,1.55
2023-03-15T16:16:49.278Z,3.33
2023-03-15T16:19:15.690Z,3.15
2023-03-15T16:21:47.369Z,1.20
2023-03-15T16:24:18.682Z,1.50
2023-03-15T16:26:46.852Z,2.30
2023-03-15T16:29:23.879Z,2.20
2023-03-15T16:31:51.263Z,1.50
2023-03-15T16:34:19.557Z,1.27
2023-03-15T16:36:49.562Z,1.30
2023-03-15T16:39:16.794Z,1.20
2023-03-15T16:41:43.339Z,1.52
2023-03-15T16:44:17.378Z,1.25
2023-03-15T16:46:44.750Z,1.30
2023-03-15T16:49:12.064Z,1.10
2023-03-15T16:51:43.647Z,1.10
2023-03-15T16:54:21.740Z,1.10
2023-03-15T16:56:51.201Z,1.25
2023-03-15T16:59:18.286Z,1.52
2023-03-15T17:01:45.889Z,2.28
2023-03-15T17:04:13.657Z,1.77
2023-03-15T17:06:40.537Z,1.70
2023-03-15T17:09:17.992Z,1.63
2023-03-15T17:11:46.744Z,1.50
2023-03-15T17:14:19.331Z,1.67
2023-03-15T17:16:46.025Z,2.50
2023-03-15T17:19:13.748Z,2.13
2023-03-15T17:21:41.826Z,2.00
2023-03-15T17:24:10.038Z,2.20
2023-03-15T17:26:37.704Z,2.25
2023-03-15T17:29:04.649Z,2.70
2023-03-15T17:31:33.211Z,2.90
2023-03-15T17:33:59.639Z,2.72
2023-03-15T17:36:29.166Z,3.00
2023-03-15T17:38:56.568Z,2.88
2023-03-15T17:41:32.233Z,3.10
2023-03-15T17:43:59.582Z,2.63
2023-03-15T17:46:30.083Z,2.50
2023-03-15T17:48:58.696Z,2.70
2023-03-15T17:51:31.664Z,2.03
2023-03-15T17:53:59.452Z,2.40
2023-03-15T17:56:27.684Z,2.92
2023-03-15T17:58:54.833Z,2.63
2023-03-15T18:01:29.542Z,2.45
2023-03-15T18:03:56.076Z,2.72
2023-03-15T18:06:23.275Z,2.95
2023-03-15T18:08:50.239Z,3.10
2023-03-15T18:11:33.740Z,2.42
2023-03-15T18:14:00.626Z,3.33
2023-03-15T18:16:27.625Z,3.53
2023-03-15T18:18:54.037Z,2.47
2023-03-15T18:21:24.020Z,3.17
2023-03-15T18:23:51.282Z,3.10
2023-03-15T18:26:19.038Z,3.60
2023-03-15T18:28:48.690Z,2.97
2023-03-15T18:31:18.396Z,2.78
2023-03-15T18:33:46.479Z,3.17
2023-03-15T18:36:13.174Z,2.75
2023-03-15T18:38:40.576Z,3.25
2023-03-15T18:41:20.487Z,2.97
2023-03-15T18:43:49.742Z,3.00
2023-03-15T18:46:20.750Z,2.85
2023-03-15T18:48:47.860Z,2.92
2023-03-15T18:51:17.216Z,2.70
2023-03-15T18:53:44.813Z,3.63
2023-03-15T18:56:17.441Z,3.67
2023-03-15T18:58:43.866Z,4.60
2023-03-15T19:01:10.564Z,4.25
2023-03-15T19:03:37.043Z,4.85
2023-03-15T19:06:09.253Z,5.05
2023-03-15T19:08:35.872Z,4.82
2023-03-15T19:11:03.670Z,4.35
2023-03-15T19:13:30.695Z,3.83
2023-03-15T19:15:57.811Z,4.03
2023-03-15T19:18:25.010Z,3.75
2023-03-15T19:20:52.484Z,2.90
2023-03-15T19:23:20.605Z,3.38
2023-03-15T19:25:47.857Z,2.70
2023-03-15T19:28:14.951Z,3.45
2023-03-15T19:30:42.079Z,3.00
2023-03-15T19:33:08.984Z,3.78
2023-03-15T19:35:36.110Z,3.45
2023-03-15T19:38:03.953Z,3.90
2023-03-15T19:40:30.412Z,4.78
2023-03-15T19:42:56.889Z,4.78
2023-03-15T19:45:23.604Z,4.45
2023-03-15T19:47:50.021Z,5.88
2023-03-15T19:50:16.760Z,4.78
2023-03-15T19:52:46.331Z,5.30
2023-03-15T19:55:18.427Z,5.05
2023-03-15T19:57:45.654Z,4.60
2023-03-15T20:00:17.023Z,4.70
2023-03-15T20:02:44.650Z,3.50
2023-03-15T20:05:14.902Z,4.03
2023-03-15T20:07:45.984Z,3.75
2023-03-15T20:10:13.494Z,3.70
2023-03-15T20:12:42.416Z,3.05
2023-03-15T20:15:11.186Z,3.63
2023-03-15T20:17:38.698Z,2.72
2023-03-15T20:20:13.106Z,2.97
2023-03-15T20:22:41.666Z,3.10
2023-03-15T20:25:10.071Z,3.38
2023-03-15T20:27:37.170Z,4.00
2023-03-15T20:30:04.831Z,3.10
2023-03-15T20:32:31.361Z,3.38
2023-03-15T20:34:57.776Z,3.20
2023-03-15T20:37:25.432Z,2.80
2023-03-15T20:39:51.857Z,3.10
2023-03-15T20:42:20.823Z,3.05
2023-03-15T20:44:47.598Z,3.00
2023-03-15T20:47:14.459Z,3.75
2023-03-15T20:49:42.317Z,4.28
2023-03-15T20:52:09.022Z,3.60
2023-03-15T20:54:36.607Z,3.90
2023-03-15T20:57:04.109Z,3.95
2023-03-15T20:59:31.589Z,4.25
2023-03-15T21:01:57.971Z,3.78
2023-03-15T21:04:25.986Z,3.83
2023-03-15T21:06:52.662Z,4.15
2023-03-15T21:09:19.093Z,3.97
2023-03-15T21:11:45.478Z,4.28
2023-03-15T21:14:11.881Z,4.60
2023-03-15T21:16:38.344Z,4.25
2023-03-15T21:19:04.800Z,4.60
2023-03-15T21:21:31.218Z,4.47
2023-03-15T21:23:57.921Z,3.63
2023-03-15T21:26:25.680Z,4.28
2023-03-15T21:28:52.075Z,3.47
2023-03-15T21:31:18.580Z,4.00
2023-03-15T21:33:45.026Z,3.70
2023-03-15T21:36:11.446Z,3.40
2023-03-15T21:38:38.057Z,3.70
2023-03-15T21:41:09.161Z,3.53
2023-03-15T21:43:36.715Z,3.92
2023-03-15T21:46:16.145Z,4.18
2023-03-15T21:48:42.687Z,3.67
2023-03-15T21:51:09.433Z,4.57
2023-03-15T21:53:36.603Z,4.28
2023-03-15T21:56:03.917Z,4.07
2023-03-15T21:58:31.239Z,3.90
2023-03-15T22:01:04.447Z,4.07
2023-03-15T22:03:31.826Z,3.72
2023-03-15T22:05:58.250Z,3.95
2023-03-15T22:08:25.318Z,4.25
2023-03-15T22:10:53.335Z,4.00
2023-03-15T22:13:19.972Z,3.90
2023-03-15T22:15:46.607Z,4.10
2023-03-15T22:18:13.184Z,4.65
2023-03-15T22:20:39.590Z,4.93
2023-03-15T22:23:06.080Z,4.53
2023-03-15T22:25:33.361Z,4.47
2023-03-15T22:28:01.618Z,4.65
2023-03-15T22:30:28.399Z,4.70
2023-03-15T22:32:54.939Z,4.20
2023-03-15T22:35:21.393Z,4.30
2023-03-15T22:37:49.209Z,3.97
2023-03-15T22:40:16.168Z,4.20
2023-03-15T22:42:43.931Z,4.85
2023-03-15T22:45:10.924Z,4.45
2023-03-15T22:47:37.526Z,4.35
2023-03-15T22:50:04.099Z,4.50
2023-03-15T22:52:30.534Z,4.43
2023-03-15T22:54:57.004Z,4.60
2023-03-15T22:57:23.673Z,4.57
2023-03-15T22:59:50.040Z,5.10
2023-03-15T23:02:16.521Z,5.05
2023-03-15T23:04:45.040Z,4.82
2023-03-15T23:07:12.341Z,4.60
2023-03-15T23:09:38.817Z,4.75
2023-03-15T23:12:05.738Z,4.93
2023-03-15T23:14:32.567Z,4.93
2023-03-15T23:16:59.115Z,4.30
2023-03-15T23:19:25.589Z,4.40
2023-03-15T23:21:52.073Z,4.65
2023-03-15T23:24:19.637Z,4.80
2023-03-15T23:26:46.168Z,4.70
2023-03-15T23:29:12.558Z,4.82
2023-03-15T23:31:40.450Z,5.22
2023-03-15T23:34:08.593Z,5.75
2023-03-15T23:36:35.476Z,4.97
2023-03-15T23:39:01.884Z,4.97
2023-03-15T23:41:28.264Z,5.28
2023-03-15T23:43:54.724Z,4.82
2023-03-15T23:46:23.368Z,4.45
2023-03-15T23:48:52.250Z,4.32
2023-03-15T23:51:19.114Z,4.38
2023-03-15T23:53:45.918Z,3.97
2023-03-15T23:56:12.341Z,3.85
2023-03-15T23:58:38.794Z,3.50
